Ed Rogowsky — WDD3622 — position and weather

sailwx.info

Track history (hours):
 
Tides and Currents Weather Stations Pressure Air Temp Water Temp Dewpoint Dewpoint Depression Visibility Wind Speed Wind Dir Waves Ship Positions

Ed Rogowsky

Owner: NEW YORK TRANS HARBOR LLC, New York, NY. More information available from US FCC via Universal Licensing System and Coast Guard Vessel Documentation Center.

Last reported at 2017-Oct-18 01:12 UTC. Time now 2017-Oct-18 05:40 UTC.
Position N 40°40' W 074°01'.

Type: Passenger vessel. MMSI: 367134010.

Date/timePositionNaut miles runAvg speedWind from/ knotsBaromVisibWave heightAir tempDewpointWater temp
2017-Oct-18 01:12N 40°40' W 074°01'0 2.4
2017-Oct-18 01:01N 40°41' W 074°01'1 1.9
2017-Oct-18 00:30N 40°42' W 074°01'1 2.8
2017-Oct-18 00:01N 40°43' W 074°02'1 2.8
2017-Oct-17 23:30N 40°42' W 074°00'0 0.0
2017-Oct-17 23:01N 40°42' W 074°00'0 0.0
2017-Oct-17 22:31N 40°42' W 074°00'0 0.0
2017-Oct-17 22:00N 40°42' W 074°00'1 2.8
2017-Oct-17 21:30N 40°42' W 074°02'1 2.8
2017-Oct-17 21:00N 40°42' W 074°00'0 0.0
2017-Oct-17 20:30N 40°42' W 074°00'1 2.6
2017-Oct-17 20:00N 40°42' W 074°02'1 2.6
2017-Oct-17 19:30N 40°42' W 074°00'0 0.0
2017-Oct-17 19:00N 40°42' W 074°00'2 3.1
2017-Oct-17 18:30N 40°42' W 074°02'2 3.1
2017-Oct-17 18:00N 40°42' W 074°00'0 0.0
2017-Oct-17 17:30N 40°42' W 074°00'2 3.2
2017-Oct-17 17:00N 40°42' W 074°02'2 3.2
2017-Oct-17 16:31N 40°42' W 074°00'2 4.2
2017-Oct-17 16:00N 40°41' W 074°02'1 2.7
2017-Oct-17 15:30N 40°42' W 074°01'1 1.4
2017-Oct-17 15:00N 40°42' W 074°00'2 4.2
2017-Oct-17 14:30N 40°40' W 074°01'0 0.0
2017-Oct-17 11:12N 40°40' W 074°01'0 0.0
2017-Oct-17 11:00N 40°40' W 074°01'0 0.0
2017-Oct-17 10:30N 40°40' W 074°01'0 0.0
2017-Oct-16 23:10N 40°40' W 074°01'0 1.5
2017-Oct-16 23:01N 40°40' W 074°01'2 3.5
2017-Oct-16 22:30N 40°42' W 074°01'2 3.4
2017-Oct-16 22:00N 40°44' W 074°01'2 3.6
2017-Oct-16 21:30N 40°42' W 074°00'3 6.6
2017-Oct-16 21:00N 40°46' W 074°00'3 6.9
2017-Oct-16 20:30N 40°42' W 073°60'3 6.2
2017-Oct-16 20:00N 40°45' W 074°01'4 8.6
2017-Oct-16 19:30N 40°41' W 074°03'1 3.0
2017-Oct-16 19:00N 40°42' W 074°01'1 1.7
2017-Oct-16 18:31N 40°43' W 074°02'1 2.6
2017-Oct-16 18:01N 40°42' W 074°00'3 5.4
2017-Oct-16 17:30N 40°45' W 074°01'3 5.6
2017-Oct-16 17:00N 40°42' W 073°60'3 5.3
2017-Oct-16 16:30N 40°45' W 074°01'4 7.4
2017-Oct-16 16:01N 40°41' W 074°03'2 3.0
2017-Oct-16 15:31N 40°42' W 074°01'1 2.6
2017-Oct-16 15:01N 40°44' W 074°01'2 2.2
2017-Oct-16 14:00N 40°46' W 074°00'5 9.2
2017-Oct-16 13:30N 40°41' W 074°02'4 0.3
2017-Oct-15 22:14N 40°46' W 074°01'313.1
2017-Oct-15 22:01N 40°43' W 074°02'1 2.5
2017-Oct-15 21:31N 40°42' W 074°00'3 6.6
2017-Oct-15 21:00N 40°46' W 074°00'3 6.9
2017-Oct-15 20:31N 40°42' W 073°60'3 6.7
2017-Oct-15 20:00N 40°46' W 074°00'3 7.0
2017-Oct-15 19:30N 40°42' W 073°60'2 4.8
2017-Oct-15 19:01N 40°44' W 074°01'3 6.3
2017-Oct-15 18:31N 40°41' W 074°02'2 3.6
2017-Oct-15 18:01N 40°42' W 074°00'3 5.9
2017-Oct-15 17:30N 40°45' W 074°01'3 5.7
2017-Oct-15 17:00N 40°42' W 073°60'3 6.6
2017-Oct-15 16:31N 40°45' W 074°01'4 8.4
2017-Oct-15 16:01N 40°41' W 074°02'1 2.5
2017-Oct-15 15:30N 40°42' W 074°01'1 2.0
2017-Oct-15 15:00N 40°43' W 074°01'3 2.6
2017-Oct-15 14:00N 40°46' W 074°00'5 0.4
2017-Oct-15 01:09N 40°40' W 074°01'0 0.0
2017-Oct-15 01:00N 40°40' W 074°01'4 7.3
2017-Oct-15 00:31N 40°44' W 074°01'918.0
2017-Oct-15 00:00N 40°52' W 073°56'5 9.1
2017-Oct-14 23:30N 40°48' W 073°59'3 5.1
2017-Oct-14 23:00N 40°46' W 074°00'4 8.9
2017-Oct-14 22:31N 40°42' W 074°02'2 3.4
2017-Oct-14 21:59N 40°42' W 074°00'3 5.5
2017-Oct-14 21:30N 40°45' W 074°01'4 7.8
2017-Oct-14 21:01N 40°41' W 074°02'2 3.2
2017-Oct-14 20:30N 40°42' W 074°00'3 5.5
2017-Oct-14 20:00N 40°45' W 074°01'2 4.9
2017-Oct-14 19:30N 40°42' W 073°60'3 5.7
2017-Oct-14 19:00N 40°45' W 074°01'4 7.7
2017-Oct-14 18:30N 40°41' W 074°02'1 2.6
2017-Oct-14 18:00N 40°42' W 074°01'1 2.8
2017-Oct-14 17:30N 40°44' W 074°01'2 3.0
2017-Oct-14 17:00N 40°42' W 074°00'3 6.6
2017-Oct-14 16:30N 40°46' W 074°01'4 8.9
2017-Oct-14 16:00N 40°41' W 074°02'1 2.7
2017-Oct-14 15:30N 40°42' W 074°01'1 2.1
2017-Oct-14 15:00N 40°43' W 074°01'1 2.6
2017-Oct-14 14:30N 40°42' W 074°00'3 6.7
2017-Oct-14 14:00N 40°46' W 074°00'510.8
2017-Oct-14 13:30N 40°40' W 074°01'0 0.0
2017-Oct-13 10:59N 40°40' W 074°01'0 0.0
2017-Oct-12 22:50N 40°40' W 074°01'2 5.2
2017-Oct-12 22:30N 40°42' W 074°01'1 1.4
2017-Oct-12 22:00N 40°42' W 074°02'1 2.6
2017-Oct-12 21:30N 40°42' W 074°00'4 7.4
2017-Oct-12 21:00N 40°46' W 074°00'4 7.1
2017-Oct-12 20:30N 40°42' W 073°60'1 2.6
2017-Oct-12 20:00N 40°43' W 074°01'2 4.1
2017-Oct-12 19:30N 40°41' W 074°03'2 4.7
2017-Oct-12 19:00N 40°43' W 074°01'2 4.8
2017-Oct-12 18:30N 40°41' W 074°03'3 5.0
2017-Oct-12 18:00N 40°42' W 073°60'3 6.6
2017-Oct-12 17:30N 40°46' W 074°00'4 7.1
2017-Oct-12 17:00N 40°42' W 073°60'2 4.0
2017-Oct-12 16:30N 40°44' W 074°01'3 5.2
2017-Oct-12 16:00N 40°41' W 074°02'1 2.4
2017-Oct-12 15:30N 40°42' W 074°01'1 2.9
2017-Oct-12 15:00N 40°44' W 074°01'2 3.1
2017-Oct-12 14:30N 40°42' W 074°00'3 6.8
2017-Oct-12 14:00N 40°46' W 074°00'4 8.3
2017-Oct-12 13:30N 40°42' W 074°02'1 0.1
2017-Oct-11 23:02N 40°40' W 074°01'0 0.0
2017-Oct-11 23:00N 40°40' W 074°01'2 3.3
2017-Oct-11 22:30N 40°42' W 074°01'2 3.8
2017-Oct-11 22:00N 40°44' W 074°01'2 3.6
2017-Oct-11 21:30N 40°42' W 074°00'3 6.9
2017-Oct-11 21:00N 40°46' W 074°01'3 6.9
2017-Oct-11 20:30N 40°42' W 073°60'1 2.7
2017-Oct-11 20:00N 40°43' W 074°01'2 3.4
2017-Oct-11 19:30N 40°41' W 074°03'1 3.0
2017-Oct-11 19:00N 40°42' W 074°01'1 1.2
2017-Oct-11 18:30N 40°43' W 074°02'2 3.0
2017-Oct-11 18:00N 40°42' W 073°60'3 6.5
2017-Oct-11 17:31N 40°46' W 074°00'3 6.8
2017-Oct-11 17:00N 40°42' W 073°60'2 0.0
2017-Oct-09 22:53N 40°40' W 074°01'2 4.7
2017-Oct-09 22:30N 40°42' W 074°01'1 2.7
2017-Oct-09 22:01N 40°43' W 074°01'1 3.0
2017-Oct-09 21:30N 40°42' W 074°00'3 6.8
2017-Oct-09 21:00N 40°46' W 074°00'3 7.0
2017-Oct-09 20:30N 40°42' W 073°60'2 3.2
2017-Oct-09 20:01N 40°43' W 074°01'2 4.8
2017-Oct-09 19:31N 40°41' W 074°03'1 2.9
2017-Oct-09 19:01N 40°42' W 074°01'1 2.6
2017-Oct-09 18:30N 40°43' W 074°01'2 3.0
2017-Oct-09 18:00N 40°42' W 074°00'3 6.7
2017-Oct-09 17:30N 40°46' W 074°00'3 6.9
2017-Oct-09 17:01N 40°42' W 073°60'2 3.4
2017-Oct-09 16:30N 40°43' W 074°01'2 4.9
2017-Oct-09 16:01N 40°41' W 074°03'1 3.0
2017-Oct-09 15:30N 40°42' W 074°01'2 3.3
2017-Oct-09 15:01N 40°44' W 074°01'2 3.6
2017-Oct-09 14:30N 40°42' W 074°00'3 6.7
2017-Oct-09 14:00N 40°46' W 074°00'510.7
2017-Oct-09 13:30N 40°40' W 074°01'0 0.1
2017-Oct-09 13:00N 40°40' W 074°01'0 0.0
2017-Oct-09 01:06N 40°40' W 074°01'0 1.6
2017-Oct-09 01:01N 40°40' W 074°01'2 4.2
2017-Oct-09 00:30N 40°42' W 074°00'1 2.6
2017-Oct-09 00:00N 40°43' W 074°02'1 2.6
2017-Oct-08 23:31N 40°42' W 074°00'0 0.0
2017-Oct-08 23:00N 40°42' W 074°00'0 0.0
2017-Oct-08 22:30N 40°42' W 074°00'0 0.0
2017-Oct-08 22:01N 40°42' W 074°00'2 3.0
2017-Oct-08 21:31N 40°42' W 074°02'2 3.0
2017-Oct-08 21:00N 40°42' W 074°00'0 0.0
2017-Oct-08 20:30N 40°42' W 074°00'1 2.8
2017-Oct-08 20:00N 40°42' W 074°02'1 3.0
2017-Oct-08 19:30N 40°42' W 074°00'0 0.1
2017-Oct-08 19:00N 40°42' W 074°00'2 3.6
2017-Oct-08 18:30N 40°42' W 074°02'2 3.6
2017-Oct-08 18:00N 40°42' W 074°00'0 0.0
2017-Oct-08 17:30N 40°42' W 074°00'1 2.5
2017-Oct-08 17:00N 40°43' W 074°02'1 2.4
2017-Oct-08 16:30N 40°42' W 074°00'0 0.0
2017-Oct-08 16:00N 40°42' W 074°00'1 2.5
2017-Oct-08 15:30N 40°43' W 074°02'1 2.6
2017-Oct-08 15:00N 40°42' W 074°00'2 4.0
2017-Oct-08 14:30N 40°40' W 074°01'  
Track history (hours):
 
Tides and Currents Weather Stations Pressure Air Temp Water Temp Dewpoint Dewpoint Depression Visibility Wind Speed Wind Dir Waves Ship Positions

Ed Rogowsky

Owner: NEW YORK TRANS HARBOR LLC, New York, NY. More information available from US FCC via Universal Licensing System and Coast Guard Vessel Documentation Center.

Last reported at 2017-Oct-18 01:12 UTC. Time now 2017-Oct-18 05:40 UTC.
Position N 40°40' W 074°01'.

Type: Passenger vessel. MMSI: 367134010.

Date/timePositionNaut miles runAvg speedWind from/ knotsBaromVisibWave heightAir tempDewpointWater temp
2017-Oct-18 01:12N 40°40' W 074°01'0 2.4
2017-Oct-18 01:01N 40°41' W 074°01'1 1.9
2017-Oct-18 00:30N 40°42' W 074°01'1 2.8
2017-Oct-18 00:01N 40°43' W 074°02'1 2.8
2017-Oct-17 23:30N 40°42' W 074°00'0 0.0
2017-Oct-17 23:01N 40°42' W 074°00'0 0.0
2017-Oct-17 22:31N 40°42' W 074°00'0 0.0
2017-Oct-17 22:00N 40°42' W 074°00'1 2.8
2017-Oct-17 21:30N 40°42' W 074°02'1 2.8
2017-Oct-17 21:00N 40°42' W 074°00'0 0.0
2017-Oct-17 20:30N 40°42' W 074°00'1 2.6
2017-Oct-17 20:00N 40°42' W 074°02'1 2.6
2017-Oct-17 19:30N 40°42' W 074°00'0 0.0
2017-Oct-17 19:00N 40°42' W 074°00'2 3.1
2017-Oct-17 18:30N 40°42' W 074°02'2 3.1
2017-Oct-17 18:00N 40°42' W 074°00'0 0.0
2017-Oct-17 17:30N 40°42' W 074°00'2 3.2
2017-Oct-17 17:00N 40°42' W 074°02'2 3.2
2017-Oct-17 16:31N 40°42' W 074°00'2 4.2
2017-Oct-17 16:00N 40°41' W 074°02'1 2.7
2017-Oct-17 15:30N 40°42' W 074°01'1 1.4
2017-Oct-17 15:00N 40°42' W 074°00'2 4.2
2017-Oct-17 14:30N 40°40' W 074°01'0 0.0
2017-Oct-17 11:12N 40°40' W 074°01'0 0.0
2017-Oct-17 11:00N 40°40' W 074°01'0 0.0
2017-Oct-17 10:30N 40°40' W 074°01'0 0.0
2017-Oct-16 23:10N 40°40' W 074°01'0 1.5
2017-Oct-16 23:01N 40°40' W 074°01'2 3.5
2017-Oct-16 22:30N 40°42' W 074°01'2 3.4
2017-Oct-16 22:00N 40°44' W 074°01'2 3.6
2017-Oct-16 21:30N 40°42' W 074°00'3 6.6
2017-Oct-16 21:00N 40°46' W 074°00'3 6.9
2017-Oct-16 20:30N 40°42' W 073°60'3 6.2
2017-Oct-16 20:00N 40°45' W 074°01'4 8.6
2017-Oct-16 19:30N 40°41' W 074°03'1 3.0
2017-Oct-16 19:00N 40°42' W 074°01'1 1.7
2017-Oct-16 18:31N 40°43' W 074°02'1 2.6
2017-Oct-16 18:01N 40°42' W 074°00'3 5.4
2017-Oct-16 17:30N 40°45' W 074°01'3 5.6
2017-Oct-16 17:00N 40°42' W 073°60'3 5.3
2017-Oct-16 16:30N 40°45' W 074°01'4 7.4
2017-Oct-16 16:01N 40°41' W 074°03'2 3.0
2017-Oct-16 15:31N 40°42' W 074°01'1 2.6
2017-Oct-16 15:01N 40°44' W 074°01'2 2.2
2017-Oct-16 14:00N 40°46' W 074°00'5 9.2
2017-Oct-16 13:30N 40°41' W 074°02'4 0.3
2017-Oct-15 22:14N 40°46' W 074°01'313.1
2017-Oct-15 22:01N 40°43' W 074°02'1 2.5
2017-Oct-15 21:31N 40°42' W 074°00'3 6.6
2017-Oct-15 21:00N 40°46' W 074°00'3 6.9
2017-Oct-15 20:31N 40°42' W 073°60'3 6.7
2017-Oct-15 20:00N 40°46' W 074°00'3 7.0
2017-Oct-15 19:30N 40°42' W 073°60'2 4.8
2017-Oct-15 19:01N 40°44' W 074°01'3 6.3
2017-Oct-15 18:31N 40°41' W 074°02'2 3.6
2017-Oct-15 18:01N 40°42' W 074°00'3 5.9
2017-Oct-15 17:30N 40°45' W 074°01'3 5.7
2017-Oct-15 17:00N 40°42' W 073°60'3 6.6
2017-Oct-15 16:31N 40°45' W 074°01'4 8.4
2017-Oct-15 16:01N 40°41' W 074°02'1 2.5
2017-Oct-15 15:30N 40°42' W 074°01'1 2.0
2017-Oct-15 15:00N 40°43' W 074°01'3 2.6
2017-Oct-15 14:00N 40°46' W 074°00'5 0.4
2017-Oct-15 01:09N 40°40' W 074°01'0 0.0
2017-Oct-15 01:00N 40°40' W 074°01'4 7.3
2017-Oct-15 00:31N 40°44' W 074°01'918.0
2017-Oct-15 00:00N 40°52' W 073°56'5 9.1
2017-Oct-14 23:30N 40°48' W 073°59'3 5.1
2017-Oct-14 23:00N 40°46' W 074°00'4 8.9
2017-Oct-14 22:31N 40°42' W 074°02'2 3.4
2017-Oct-14 21:59N 40°42' W 074°00'3 5.5
2017-Oct-14 21:30N 40°45' W 074°01'4 7.8
2017-Oct-14 21:01N 40°41' W 074°02'2 3.2
2017-Oct-14 20:30N 40°42' W 074°00'3 5.5
2017-Oct-14 20:00N 40°45' W 074°01'2 4.9
2017-Oct-14 19:30N 40°42' W 073°60'3 5.7
2017-Oct-14 19:00N 40°45' W 074°01'4 7.7
2017-Oct-14 18:30N 40°41' W 074°02'1 2.6
2017-Oct-14 18:00N 40°42' W 074°01'1 2.8
2017-Oct-14 17:30N 40°44' W 074°01'2 3.0
2017-Oct-14 17:00N 40°42' W 074°00'3 6.6
2017-Oct-14 16:30N 40°46' W 074°01'4 8.9
2017-Oct-14 16:00N 40°41' W 074°02'1 2.7
2017-Oct-14 15:30N 40°42' W 074°01'1 2.1
2017-Oct-14 15:00N 40°43' W 074°01'1 2.6
2017-Oct-14 14:30N 40°42' W 074°00'3 6.7
2017-Oct-14 14:00N 40°46' W 074°00'510.8
2017-Oct-14 13:30N 40°40' W 074°01'0 0.0
2017-Oct-13 10:59N 40°40' W 074°01'0 0.0
2017-Oct-12 22:50N 40°40' W 074°01'2 5.2
2017-Oct-12 22:30N 40°42' W 074°01'1 1.4
2017-Oct-12 22:00N 40°42' W 074°02'1 2.6
2017-Oct-12 21:30N 40°42' W 074°00'4 7.4
2017-Oct-12 21:00N 40°46' W 074°00'4 7.1
2017-Oct-12 20:30N 40°42' W 073°60'1 2.6
2017-Oct-12 20:00N 40°43' W 074°01'2 4.1
2017-Oct-12 19:30N 40°41' W 074°03'2 4.7
2017-Oct-12 19:00N 40°43' W 074°01'2 4.8
2017-Oct-12 18:30N 40°41' W 074°03'3 5.0
2017-Oct-12 18:00N 40°42' W 073°60'3 6.6
2017-Oct-12 17:30N 40°46' W 074°00'4 7.1
2017-Oct-12 17:00N 40°42' W 073°60'2 4.0
2017-Oct-12 16:30N 40°44' W 074°01'3 5.2
2017-Oct-12 16:00N 40°41' W 074°02'1 2.4
2017-Oct-12 15:30N 40°42' W 074°01'1 2.9
2017-Oct-12 15:00N 40°44' W 074°01'2 3.1
2017-Oct-12 14:30N 40°42' W 074°00'3 6.8
2017-Oct-12 14:00N 40°46' W 074°00'4 8.3
2017-Oct-12 13:30N 40°42' W 074°02'1 0.1
2017-Oct-11 23:02N 40°40' W 074°01'0 0.0
2017-Oct-11 23:00N 40°40' W 074°01'2 3.3
2017-Oct-11 22:30N 40°42' W 074°01'2 3.8
2017-Oct-11 22:00N 40°44' W 074°01'2 3.6
2017-Oct-11 21:30N 40°42' W 074°00'3 6.9
2017-Oct-11 21:00N 40°46' W 074°01'3 6.9
2017-Oct-11 20:30N 40°42' W 073°60'1 2.7
2017-Oct-11 20:00N 40°43' W 074°01'2 3.4
2017-Oct-11 19:30N 40°41' W 074°03'1 3.0
2017-Oct-11 19:00N 40°42' W 074°01'1 1.2
2017-Oct-11 18:30N 40°43' W 074°02'2 3.0
2017-Oct-11 18:00N 40°42' W 073°60'3 6.5
2017-Oct-11 17:31N 40°46' W 074°00'3 6.8
2017-Oct-11 17:00N 40°42' W 073°60'2 0.0
2017-Oct-09 22:53N 40°40' W 074°01'2 4.7
2017-Oct-09 22:30N 40°42' W 074°01'1 2.7
2017-Oct-09 22:01N 40°43' W 074°01'1 3.0
2017-Oct-09 21:30N 40°42' W 074°00'3 6.8
2017-Oct-09 21:00N 40°46' W 074°00'3 7.0
2017-Oct-09 20:30N 40°42' W 073°60'2 3.2
2017-Oct-09 20:01N 40°43' W 074°01'2 4.8
2017-Oct-09 19:31N 40°41' W 074°03'1 2.9
2017-Oct-09 19:01N 40°42' W 074°01'1 2.6
2017-Oct-09 18:30N 40°43' W 074°01'2 3.0
2017-Oct-09 18:00N 40°42' W 074°00'3 6.7
2017-Oct-09 17:30N 40°46' W 074°00'3 6.9
2017-Oct-09 17:01N 40°42' W 073°60'2 3.4
2017-Oct-09 16:30N 40°43' W 074°01'2 4.9
2017-Oct-09 16:01N 40°41' W 074°03'1 3.0
2017-Oct-09 15:30N 40°42' W 074°01'2 3.3
2017-Oct-09 15:01N 40°44' W 074°01'2 3.6
2017-Oct-09 14:30N 40°42' W 074°00'3 6.7
2017-Oct-09 14:00N 40°46' W 074°00'510.7
2017-Oct-09 13:30N 40°40' W 074°01'0 0.1
2017-Oct-09 13:00N 40°40' W 074°01'0 0.0
2017-Oct-09 01:06N 40°40' W 074°01'0 1.6
2017-Oct-09 01:01N 40°40' W 074°01'2 4.2
2017-Oct-09 00:30N 40°42' W 074°00'1 2.6
2017-Oct-09 00:00N 40°43' W 074°02'1 2.6
2017-Oct-08 23:31N 40°42' W 074°00'0 0.0
2017-Oct-08 23:00N 40°42' W 074°00'0 0.0
2017-Oct-08 22:30N 40°42' W 074°00'0 0.0
2017-Oct-08 22:01N 40°42' W 074°00'2 3.0
2017-Oct-08 21:31N 40°42' W 074°02'2 3.0
2017-Oct-08 21:00N 40°42' W 074°00'0 0.0
2017-Oct-08 20:30N 40°42' W 074°00'1 2.8
2017-Oct-08 20:00N 40°42' W 074°02'1 3.0
2017-Oct-08 19:30N 40°42' W 074°00'0 0.1
2017-Oct-08 19:00N 40°42' W 074°00'2 3.6
2017-Oct-08 18:30N 40°42' W 074°02'2 3.6
2017-Oct-08 18:00N 40°42' W 074°00'0 0.0
2017-Oct-08 17:30N 40°42' W 074°00'1 2.5
2017-Oct-08 17:00N 40°43' W 074°02'1 2.4
2017-Oct-08 16:30N 40°42' W 074°00'0 0.0
2017-Oct-08 16:00N 40°42' W 074°00'1 2.5
2017-Oct-08 15:30N 40°43' W 074°02'1 2.6
2017-Oct-08 15:00N 40°42' W 074°00'2 4.0
2017-Oct-08 14:30N 40°40' W 074°01'  

Dump ship's entire track history